createdAt,value
2022-08-06T00:02:25.888Z,64.42
2022-08-06T00:05:00.597Z,64.42
2022-08-06T00:07:28.366Z,64.53
2022-08-06T00:10:01.672Z,64.73
2022-08-06T00:12:32.311Z,64.93
2022-08-06T00:15:00.178Z,65.91
2022-08-06T00:17:31.470Z,65.98
2022-08-06T00:20:01.276Z,66.69
2022-08-06T00:22:29.051Z,67.10
2022-08-06T00:24:56.656Z,66.71
2022-08-06T00:27:29.481Z,67.08
2022-08-06T00:30:14.867Z,67.36
2022-08-06T00:32:51.283Z,68.33
2022-08-06T00:35:21.802Z,68.91
2022-08-06T00:37:57.819Z,68.41
2022-08-06T00:40:30.887Z,68.34
2022-08-06T00:43:06.345Z,68.51
2022-08-06T00:45:38.350Z,68.40
2022-08-06T00:48:23.169Z,68.99
2022-08-06T00:51:00.712Z,69.35
2022-08-06T00:53:27.964Z,68.76
2022-08-06T00:56:08.910Z,69.20
2022-08-06T00:58:40.723Z,68.97
2022-08-06T01:01:16.728Z,68.73
2022-08-06T01:03:51.775Z,68.90
2022-08-06T01:06:55.599Z,69.08
2022-08-06T01:09:09.986Z,70.06
2022-08-06T01:11:38.396Z,69.63
2022-08-06T01:14:05.864Z,70.02
2022-08-06T01:16:49.090Z,69.64
2022-08-06T01:19:29.306Z,69.97
2022-08-06T01:22:31.575Z,69.97
2022-08-06T01:25:46.168Z,70.01
2022-08-06T01:28:28.383Z,70.28
2022-08-06T01:31:29.996Z,70.36
2022-08-06T01:34:15.617Z,70.41
2022-08-06T01:36:48.943Z,70.51
2022-08-06T01:39:21.514Z,70.71
2022-08-06T01:41:59.161Z,71.09
2022-08-06T01:44:40.073Z,70.76
2022-08-06T01:47:16.667Z,70.92
2022-08-06T01:50:01.725Z,70.55
2022-08-06T01:52:34.552Z,70.41
2022-08-06T01:55:02.823Z,70.45
2022-08-06T01:58:09.973Z,70.49
2022-08-06T02:00:29.697Z,70.10
2022-08-06T02:03:04.155Z,69.94
2022-08-06T02:05:33.474Z,70.30
2022-08-06T02:08:36.923Z,70.09
2022-08-06T02:12:01.042Z,70.16
2022-08-06T02:13:58.252Z,70.01
2022-08-06T02:16:29.244Z,70.29
2022-08-06T02:18:57.619Z,70.27
2022-08-06T02:21:32.894Z,70.55
2022-08-06T02:24:03.691Z,70.23
2022-08-06T02:26:32.954Z,70.59
2022-08-06T02:29:02.650Z,70.53
2022-08-06T02:31:29.449Z,70.67
2022-08-06T02:34:14.904Z,70.50
2022-08-06T02:36:50.248Z,70.91
2022-08-06T02:39:30.232Z,71.09
2022-08-06T02:42:18.776Z,71.37
2022-08-06T02:45:00.285Z,71.07
2022-08-06T02:48:01.167Z,70.60
2022-08-06T02:50:41.628Z,71.04
2022-08-06T02:53:24.265Z,70.91
2022-08-06T02:56:00.724Z,70.95
2022-08-06T02:58:45.450Z,71.28
2022-08-06T03:01:29.059Z,71.02
2022-08-06T03:04:00.110Z,70.41
2022-08-06T03:06:30.705Z,70.36
2022-08-06T03:08:58.926Z,70.12
2022-08-06T03:11:31.196Z,69.96
2022-08-06T03:14:31.777Z,70.05
2022-08-06T03:16:52.325Z,70.92
2022-08-06T03:19:57.519Z,70.60
2022-08-06T03:22:11.669Z,70.41
2022-08-06T03:24:47.009Z,71.09
2022-08-06T03:27:17.290Z,70.95
2022-08-06T03:29:49.761Z,71.04
2022-08-06T03:32:51.194Z,71.04
2022-08-06T03:35:49.087Z,70.59
2022-08-06T03:38:02.681Z,70.99
2022-08-06T03:40:31.425Z,71.25
2022-08-06T03:43:00.496Z,70.74
2022-08-06T03:45:45.291Z,70.70
2022-08-06T03:48:36.250Z,71.10
2022-08-06T03:51:11.027Z,70.76
2022-08-06T03:53:44.852Z,71.04
2022-08-06T03:56:28.773Z,70.44
2022-08-06T03:59:04.849Z,70.03
2022-08-06T04:01:43.165Z,69.37
2022-08-06T04:04:27.257Z,69.67
2022-08-06T04:07:00.508Z,69.31
2022-08-06T04:09:33.851Z,69.49
2022-08-06T04:12:58.885Z,68.94
2022-08-06T04:15:08.377Z,69.26
2022-08-06T04:17:40.524Z,69.83
2022-08-06T04:20:08.666Z,69.63
2022-08-06T04:22:59.676Z,69.41
2022-08-06T04:25:25.124Z,69.28
2022-08-06T04:27:54.330Z,70.10
2022-08-06T04:30:27.497Z,70.95
2022-08-06T04:33:01.194Z,70.18
2022-08-06T04:36:07.920Z,69.89
2022-08-06T04:38:28.083Z,68.97
2022-08-06T04:40:57.560Z,68.16
2022-08-06T04:43:37.990Z,68.33
2022-08-06T04:46:16.671Z,67.13
2022-08-06T04:48:47.925Z,66.76
2022-08-06T04:51:17.285Z,66.55
2022-08-06T04:54:06.074Z,65.17
2022-08-06T04:56:37.486Z,65.50
2022-08-06T04:59:09.441Z,65.73
2022-08-06T05:01:40.935Z,65.86
2022-08-06T05:04:23.747Z,65.27
2022-08-06T05:06:58.479Z,65.54
2022-08-06T05:09:42.837Z,65.08
2022-08-06T05:12:26.453Z,64.54
2022-08-06T05:15:09.010Z,65.01
2022-08-06T05:17:39.792Z,64.54
2022-08-06T05:20:26.308Z,64.24
2022-08-06T05:23:01.332Z,64.14
2022-08-06T05:25:35.949Z,63.87
2022-08-06T05:28:11.262Z,63.56
2022-08-06T05:30:49.844Z,63.69
2022-08-06T05:33:30.817Z,64.20
2022-08-06T05:36:02.608Z,64.28
2022-08-06T05:38:36.432Z,63.59
2022-08-06T05:41:11.886Z,63.07
2022-08-06T05:43:59.880Z,64.79
2022-08-06T05:46:31.121Z,64.55
2022-08-06T05:49:57.485Z,64.47
2022-08-06T05:52:26.407Z,64.33
2022-08-06T05:55:25.604Z,63.19
2022-08-06T05:58:08.827Z,63.26
2022-08-06T06:00:43.680Z,63.18
2022-08-06T06:03:24.578Z,63.05
2022-08-06T06:06:06.786Z,62.74
2022-08-06T06:08:57.800Z,62.52
2022-08-06T06:11:55.431Z,61.30
2022-08-06T06:14:37.903Z,62.02
2022-08-06T06:17:20.535Z,62.22
2022-08-06T06:20:08.660Z,60.30
2022-08-06T06:23:20.459Z,59.77
2022-08-06T06:26:32.902Z,60.26
2022-08-06T06:30:06.273Z,59.75
2022-08-06T06:32:30.520Z,59.88
2022-08-06T06:35:22.445Z,59.86
2022-08-06T06:38:00.438Z,60.88
2022-08-06T06:40:47.016Z,59.85
2022-08-06T06:43:49.261Z,58.77
2022-08-06T06:46:38.566Z,58.84
2022-08-06T06:50:00.198Z,57.84
2022-08-06T06:52:12.786Z,57.99
2022-08-06T06:54:59.620Z,57.73
2022-08-06T06:57:43.144Z,57.49
2022-08-06T07:00:45.689Z,56.73
2022-08-06T07:03:02.763Z,57.48
2022-08-06T07:06:02.958Z,57.09
2022-08-06T07:08:32.194Z,56.95
2022-08-06T07:11:07.282Z,56.30
2022-08-06T07:13:47.802Z,55.12
2022-08-06T07:16:35.268Z,54.63
2022-08-06T07:19:10.234Z,55.13
2022-08-06T07:21:42.216Z,54.98
2022-08-06T07:24:35.921Z,55.56
2022-08-06T07:27:00.908Z,55.05
2022-08-06T07:29:49.139Z,55.14
2022-08-06T07:32:31.462Z,55.04
2022-08-06T07:35:00.585Z,55.07
2022-08-06T07:37:37.737Z,55.55
2022-08-06T07:40:10.201Z,55.28
2022-08-06T07:42:39.181Z,55.30
2022-08-06T07:45:16.373Z,56.07
2022-08-06T07:47:54.217Z,55.86
2022-08-06T07:50:24.831Z,52.98
2022-08-06T07:52:56.430Z,52.27
2022-08-06T07:55:37.388Z,52.96
2022-08-06T07:58:08.548Z,53.08
2022-08-06T08:00:38.579Z,54.04
2022-08-06T08:03:55.868Z,54.96
2022-08-06T08:06:21.578Z,56.32
2022-08-06T08:08:57.101Z,56.75
2022-08-06T08:11:38.365Z,55.13
2022-08-06T08:14:15.482Z,55.04
2022-08-06T08:16:43.640Z,54.12
2022-08-06T08:19:35.037Z,53.60
2022-08-06T08:22:17.349Z,54.02
2022-08-06T08:24:53.962Z,53.13
2022-08-06T08:27:23.522Z,52.36
2022-08-06T08:29:56.869Z,52.42
2022-08-06T08:32:24.883Z,52.65
2022-08-06T08:34:53.011Z,52.78
2022-08-06T08:37:20.770Z,51.76
2022-08-06T08:39:47.837Z,52.46
2022-08-06T08:42:38.334Z,52.56
2022-08-06T08:45:13.078Z,53.40
2022-08-06T08:47:54.000Z,53.58
2022-08-06T08:50:28.209Z,54.76
2022-08-06T08:53:09.582Z,53.75
2022-08-06T08:57:10.526Z,53.65
2022-08-06T08:58:41.855Z,53.94
2022-08-06T09:01:51.345Z,53.61
2022-08-06T09:03:59.094Z,53.07
2022-08-06T09:06:30.788Z,53.49
2022-08-06T09:09:05.519Z,52.22
2022-08-06T09:12:04.288Z,47.92
2022-08-06T09:14:28.237Z,48.93
2022-08-06T09:17:00.862Z,48.34
2022-08-06T09:19:37.908Z,51.49
2022-08-06T09:22:08.821Z,50.29
2022-08-06T09:24:36.889Z,49.15
2022-08-06T09:27:45.125Z,48.03
2022-08-06T09:30:00.611Z,48.45
2022-08-06T09:32:57.057Z,48.52
2022-08-06T09:35:44.595Z,50.65
2022-08-06T09:38:17.319Z,49.87
2022-08-06T09:41:24.251Z,49.48
2022-08-06T09:44:03.849Z,48.63
2022-08-06T09:46:49.072Z,48.12
2022-08-06T09:49:48.059Z,49.05
2022-08-06T09:52:17.269Z,48.36
2022-08-06T09:54:46.387Z,47.08
2022-08-06T09:57:15.336Z,46.15
2022-08-06T09:59:50.213Z,45.51
2022-08-06T10:02:23.618Z,46.12
2022-08-06T10:05:19.536Z,46.29
2022-08-06T10:08:13.958Z,46.35
2022-08-06T10:10:52.357Z,46.17
2022-08-06T10:13:39.271Z,46.75
2022-08-06T10:16:20.609Z,46.92
2022-08-06T10:18:55.452Z,47.55
2022-08-06T10:21:41.769Z,45.55
2022-08-06T10:24:26.167Z,45.05
2022-08-06T10:27:15.156Z,46.40
2022-08-06T10:29:43.381Z,46.12
2022-08-06T10:32:15.847Z,47.21
2022-08-06T10:34:45.656Z,46.44
2022-08-06T10:37:49.608Z,46.04
2022-08-06T10:40:09.868Z,46.96
2022-08-06T10:42:40.379Z,47.44
2022-08-06T10:45:13.277Z,46.28
2022-08-06T10:48:58.967Z,46.58
2022-08-06T10:50:44.702Z,46.09
2022-08-06T10:53:20.621Z,45.84
2022-08-06T10:56:08.919Z,45.96
2022-08-06T10:58:37.839Z,46.16
2022-08-06T11:01:16.030Z,46.90
2022-08-06T11:04:26.354Z,46.42
2022-08-06T11:06:53.331Z,45.73
2022-08-06T11:09:59.854Z,45.71
2022-08-06T11:12:41.262Z,44.31
2022-08-06T11:15:17.973Z,43.40
2022-08-06T11:18:03.477Z,44.92
2022-08-06T11:20:37.399Z,45.27
2022-08-06T11:23:11.839Z,46.04
2022-08-06T11:25:58.933Z,46.19
2022-08-06T11:28:29.806Z,46.10
2022-08-06T11:31:03.057Z,44.35
2022-08-06T11:33:36.447Z,44.68
2022-08-06T11:36:10.779Z,44.56
2022-08-06T11:38:48.477Z,45.68
2022-08-06T11:41:55.398Z,45.69
2022-08-06T11:44:38.484Z,45.41
2022-08-06T11:47:14.106Z,45.29
2022-08-06T11:49:44.867Z,44.66
2022-08-06T11:52:34.305Z,46.35
2022-08-06T11:55:08.483Z,45.06
2022-08-06T11:57:42.047Z,45.36
2022-08-06T12:00:20.993Z,45.26
2022-08-06T12:02:56.672Z,43.78
2022-08-06T12:05:23.943Z,44.16
2022-08-06T12:08:14.514Z,44.26
2022-08-06T12:11:20.543Z,45.29
2022-08-06T12:13:57.546Z,45.35
2022-08-06T12:16:39.423Z,46.05
2022-08-06T12:19:12.982Z,45.04
2022-08-06T12:21:44.676Z,44.78
2022-08-06T12:24:15.929Z,44.60
2022-08-06T12:26:43.910Z,44.09
2022-08-06T12:29:11.202Z,44.41
2022-08-06T12:31:50.237Z,45.40
2022-08-06T12:34:27.881Z,46.43
2022-08-06T12:36:55.050Z,45.79
2022-08-06T12:39:45.677Z,46.95
2022-08-06T12:42:53.202Z,45.80
2022-08-06T12:46:04.359Z,45.00
2022-08-06T12:48:11.322Z,44.25
2022-08-06T12:50:43.403Z,44.06
2022-08-06T12:53:15.418Z,45.52
2022-08-06T12:55:55.771Z,45.17
2022-08-06T12:58:42.416Z,44.42
2022-08-06T13:02:08.654Z,43.00
2022-08-06T13:04:09.183Z,43.93
2022-08-06T13:06:37.762Z,42.64
2022-08-06T13:09:08.151Z,43.00
2022-08-06T13:11:41.628Z,42.86
2022-08-06T13:14:18.437Z,44.32
2022-08-06T13:16:57.221Z,44.59
2022-08-06T13:19:28.208Z,44.25
2022-08-06T13:22:03.005Z,45.61
2022-08-06T13:24:30.945Z,46.11
2022-08-06T13:27:03.009Z,45.95
2022-08-06T13:30:30.715Z,46.05
2022-08-06T13:32:33.339Z,45.68
2022-08-06T13:35:17.853Z,45.47
2022-08-06T13:37:57.544Z,45.51
2022-08-06T13:40:41.947Z,46.16
2022-08-06T13:43:39.819Z,46.18
2022-08-06T13:46:15.369Z,46.51
2022-08-06T13:48:49.710Z,46.42
2022-08-06T13:51:27.275Z,46.78
2022-08-06T13:53:57.460Z,47.54
2022-08-06T13:56:29.103Z,47.17
2022-08-06T13:58:58.880Z,47.22
2022-08-06T14:01:44.126Z,46.81
2022-08-06T14:04:14.210Z,47.74
2022-08-06T14:06:44.843Z,46.21
2022-08-06T14:09:19.392Z,45.83
2022-08-06T14:11:58.506Z,46.30
2022-08-06T14:14:27.808Z,46.28
2022-08-06T14:16:57.080Z,46.58
2022-08-06T14:20:14.740Z,46.58
2022-08-06T14:22:11.149Z,47.22
2022-08-06T14:24:39.378Z,47.14
2022-08-06T14:27:14.870Z,47.03
2022-08-06T14:30:27.718Z,48.02
2022-08-06T14:32:32.352Z,49.23
2022-08-06T14:35:03.644Z,50.40
2022-08-06T14:37:43.316Z,50.29
2022-08-06T14:40:23.726Z,49.50
2022-08-06T14:43:17.569Z,49.28
2022-08-06T14:45:44.210Z,47.91
2022-08-06T14:48:10.983Z,47.94
2022-08-06T14:50:42.077Z,47.92
2022-08-06T14:53:16.257Z,47.30
2022-08-06T14:56:07.016Z,47.09
2022-08-06T14:58:32.168Z,47.24
2022-08-06T15:00:59.197Z,48.09
2022-08-06T15:03:33.231Z,48.72
2022-08-06T15:06:06.198Z,48.27
2022-08-06T15:08:35.700Z,47.62
2022-08-06T15:11:05.860Z,48.78
2022-08-06T15:13:36.906Z,48.85
2022-08-06T15:16:11.027Z,48.68
2022-08-06T15:19:10.321Z,48.47
2022-08-06T15:21:51.071Z,48.37
2022-08-06T15:24:21.718Z,47.52
2022-08-06T15:26:51.824Z,49.47
2022-08-06T15:29:25.420Z,48.25
2022-08-06T15:31:52.309Z,48.23
2022-08-06T15:34:20.251Z,47.07
2022-08-06T15:37:02.938Z,47.40
2022-08-06T15:39:53.139Z,47.49
2022-08-06T15:42:23.830Z,49.13
2022-08-06T15:44:54.454Z,48.10
2022-08-06T15:47:32.035Z,48.03
2022-08-06T15:50:03.176Z,48.23
2022-08-06T15:52:33.595Z,47.75
2022-08-06T15:55:16.528Z,47.63
2022-08-06T15:58:06.837Z,48.27
2022-08-06T16:00:36.590Z,48.04
2022-08-06T16:03:06.613Z,46.79
2022-08-06T16:06:11.096Z,45.74
2022-08-06T16:08:22.989Z,45.98
2022-08-06T16:11:02.571Z,44.87
2022-08-06T16:13:36.295Z,44.80
2022-08-06T16:16:05.799Z,45.03
2022-08-06T16:18:34.118Z,43.96
2022-08-06T16:21:05.977Z,44.09
2022-08-06T16:23:55.708Z,43.63
2022-08-06T16:26:40.611Z,43.17
2022-08-06T16:29:08.761Z,45.03
2022-08-06T16:31:38.028Z,45.23
2022-08-06T16:34:14.458Z,45.15
2022-08-06T16:36:42.714Z,45.55
2022-08-06T16:39:12.495Z,45.12
2022-08-06T16:41:58.998Z,45.37
2022-08-06T16:44:34.805Z,44.98
2022-08-06T16:47:06.552Z,43.48
2022-08-06T16:49:59.348Z,44.24
2022-08-06T16:52:42.768Z,43.63
2022-08-06T16:55:09.222Z,45.63
2022-08-06T16:57:37.967Z,45.17
2022-08-06T17:00:09.278Z,45.74
2022-08-06T17:02:42.354Z,45.34
2022-08-06T17:05:21.635Z,46.13
2022-08-06T17:10:39.724Z,48.17
2022-08-06T17:13:09.154Z,49.02
2022-08-06T17:15:37.570Z,50.43
2022-08-06T17:18:04.961Z,50.75
2022-08-06T17:20:31.704Z,50.85
2022-08-06T17:25:50.948Z,50.03
2022-08-06T17:28:18.382Z,51.53
2022-08-06T17:30:45.044Z,52.31
2022-08-06T17:33:19.580Z,51.12
2022-08-06T17:36:30.691Z,50.48
2022-08-06T17:38:36.569Z,51.46
2022-08-06T17:41:11.687Z,51.95
2022-08-06T17:43:56.128Z,51.91
2022-08-06T17:46:26.511Z,51.79
2022-08-06T17:48:54.890Z,51.88
2022-08-06T17:51:23.074Z,52.47
2022-08-06T17:53:53.174Z,52.46
2022-08-06T17:56:29.775Z,51.23
2022-08-06T17:59:16.930Z,52.08
2022-08-06T18:01:49.958Z,52.79
2022-08-06T18:04:31.060Z,51.99
2022-08-06T18:07:11.693Z,51.27
2022-08-06T18:10:10.474Z,51.45
2022-08-06T18:12:31.720Z,50.41
2022-08-06T18:14:59.294Z,50.16
2022-08-06T18:17:59.581Z,50.23
2022-08-06T18:20:13.097Z,50.20
2022-08-06T18:22:43.641Z,49.80
2022-08-06T18:25:14.980Z,49.87
2022-08-06T18:27:55.597Z,50.79
2022-08-06T18:30:36.594Z,51.71
2022-08-06T18:33:12.778Z,52.71
2022-08-06T18:35:45.877Z,53.07
2022-08-06T18:38:32.225Z,54.10
2022-08-06T18:41:06.268Z,54.27
2022-08-06T18:43:49.763Z,54.66
2022-08-06T18:46:56.230Z,55.02
2022-08-06T18:49:26.879Z,55.28
2022-08-06T18:52:05.970Z,55.76
2022-08-06T18:54:56.969Z,56.31
2022-08-06T18:57:38.170Z,55.92
2022-08-06T19:00:18.405Z,56.04
2022-08-06T19:02:48.884Z,56.37
2022-08-06T19:05:17.109Z,56.74
2022-08-06T19:07:53.750Z,56.61
2022-08-06T19:10:24.345Z,57.15
2022-08-06T19:12:54.753Z,57.48
2022-08-06T19:15:24.388Z,57.45
2022-08-06T19:18:14.372Z,57.38
2022-08-06T19:20:38.127Z,57.45
2022-08-06T19:23:06.483Z,57.66
2022-08-06T19:25:52.090Z,57.74
2022-08-06T19:28:34.736Z,58.06
2022-08-06T19:31:06.992Z,58.18
2022-08-06T19:33:37.159Z,58.35
2022-08-06T19:36:30.828Z,58.44
2022-08-06T19:38:53.593Z,58.91
2022-08-06T19:42:00.210Z,58.76
2022-08-06T19:44:28.185Z,59.07
2022-08-06T19:46:56.358Z,59.58
2022-08-06T19:49:23.400Z,59.79
2022-08-06T19:52:04.648Z,60.25
2022-08-06T19:54:35.718Z,60.16
2022-08-06T19:57:06.390Z,60.22
2022-08-06T20:00:51.251Z,60.13
2022-08-06T20:02:28.717Z,60.45
2022-08-06T20:04:57.548Z,60.30
2022-08-06T20:07:34.388Z,60.52
2022-08-06T20:10:03.145Z,60.41
2022-08-06T20:12:38.267Z,60.06
2022-08-06T20:15:08.958Z,60.21
2022-08-06T20:17:45.944Z,60.12
2022-08-06T20:20:29.141Z,59.71
2022-08-06T20:23:08.421Z,59.61
2022-08-06T20:26:10.442Z,59.32
2022-08-06T20:29:08.113Z,59.53
2022-08-06T20:31:16.715Z,59.44
2022-08-06T20:33:58.986Z,59.51
2022-08-06T20:36:30.687Z,59.35
2022-08-06T20:38:58.243Z,59.11
2022-08-06T20:41:57.560Z,59.67
2022-08-06T20:44:14.305Z,59.38
2022-08-06T20:47:44.313Z,59.31
2022-08-06T20:50:03.839Z,59.58
2022-08-06T20:52:19.228Z,59.63
2022-08-06T20:54:51.791Z,60.04
2022-08-06T20:57:27.772Z,59.91
2022-08-06T20:59:58.211Z,60.01
2022-08-06T21:02:31.849Z,60.28
2022-08-06T21:05:14.082Z,60.67
2022-08-06T21:07:57.788Z,60.77
2022-08-06T21:10:31.181Z,61.16
2022-08-06T21:13:06.722Z,60.93
2022-08-06T21:15:54.483Z,61.17
2022-08-06T21:18:24.022Z,61.40
2022-08-06T21:20:53.146Z,61.55
2022-08-06T21:23:42.088Z,61.67
2022-08-06T21:26:08.309Z,61.60
2022-08-06T21:28:42.212Z,61.59
2022-08-06T21:31:10.421Z,61.94
2022-08-06T21:33:52.748Z,61.82
2022-08-06T21:36:26.905Z,61.64
2022-08-06T21:38:58.078Z,61.95
2022-08-06T21:41:58.385Z,62.50
2022-08-06T21:44:24.178Z,61.95
2022-08-06T21:46:58.612Z,61.89
2022-08-06T21:50:00.458Z,62.40
2022-08-06T21:52:27.518Z,62.26
2022-08-06T21:54:57.440Z,62.44
2022-08-06T21:57:25.327Z,62.63
2022-08-06T21:59:53.313Z,62.63
2022-08-06T22:02:28.041Z,62.76
2022-08-06T22:05:00.497Z,62.62
2022-08-06T22:08:04.611Z,62.76
2022-08-06T22:10:28.862Z,62.87
2022-08-06T22:13:12.260Z,63.13
2022-08-06T22:15:46.743Z,62.93
2022-08-06T22:18:16.795Z,62.95
2022-08-06T22:20:45.845Z,63.00
2022-08-06T22:23:15.936Z,63.02
2022-08-06T22:25:43.061Z,63.26
2022-08-06T22:28:11.727Z,63.26
2022-08-06T22:30:52.568Z,63.13
2022-08-06T22:33:23.647Z,62.94
2022-08-06T22:35:58.464Z,63.50
2022-08-06T22:38:39.008Z,63.40
2022-08-06T22:41:05.666Z,63.69
2022-08-06T22:43:51.880Z,63.42
2022-08-06T22:46:25.527Z,63.76
2022-08-06T22:48:52.984Z,63.45
2022-08-06T22:51:28.705Z,63.94
2022-08-06T22:54:29.561Z,64.11
2022-08-06T22:57:05.048Z,64.10
2022-08-06T23:00:06.959Z,64.01
2022-08-06T23:02:19.678Z,64.45
2022-08-06T23:04:46.764Z,64.79
2022-08-06T23:07:21.443Z,64.73
2022-08-06T23:09:53.660Z,65.42
2022-08-06T23:12:25.399Z,65.67
2022-08-06T23:14:59.034Z,65.91
2022-08-06T23:17:26.158Z,66.33
2022-08-06T23:20:11.809Z,66.51
2022-08-06T23:22:39.443Z,66.73
2022-08-06T23:26:02.068Z,66.65
2022-08-06T23:27:54.923Z,66.68
2022-08-06T23:30:22.120Z,66.97
2022-08-06T23:32:49.466Z,66.88
2022-08-06T23:35:35.830Z,66.88
2022-08-06T23:38:31.376Z,67.01
2022-08-06T23:40:51.846Z,67.33
2022-08-06T23:43:19.439Z,67.49
2022-08-06T23:45:47.201Z,67.47
2022-08-06T23:48:15.201Z,67.40
2022-08-06T23:50:52.895Z,67.64
2022-08-06T23:54:06.359Z,67.71
2022-08-06T23:56:13.120Z,67.59
2022-08-06T23:58:49.018Z,67.60
